Data for 02/04/2018

Time Sea-Level Adjusted Pressure Absolute Pressure Temperature Relative Humidity Dew Point   
(mb) (inHg) (mb) (inHg) (C) (F) (%) (C) (F)
00:05 1019 30.09 848 25.04 -12.4 9.7 77 -15.6 4
00:10 1019 30.09 848 25.04 -12.5 9.5 77 -15.8 3.5
00:15 1019 30.09 848 25.04 -12.6 9.3 76 -16.1 3.1
00:20 1019 30.09 849 25.07 -12.8 8.9 76 -16.2 2.8
00:25 1019 30.09 849 25.07 -13.1 8.4 74 -16.8 1.7
00:30 1020 30.12 849 25.07 -13.5 7.7 75 -17.1 1.2
00:35 1020 30.12 849 25.07 -13.8 7.1 74 -17.5 0.4
00:40 1020 30.12 849 25.07 -14 6.8 75 -17.6 0.4
00:45 1020 30.12 849 25.07 -14.2 6.4 76 -17.6 0.2
00:50 1020 30.12 849 25.07 -14.3 6.3 75 -17.8 -0
00:55 1020 30.12 849 25.07 -14.5 5.8 74 -18.2 -0.7
01:00 1020 30.12 849 25.07 -14.6 5.8 73 -18.5 -1.2
01:05 1020 30.12 849 25.07 -14.6 5.7 72 -18.7 -1.6
01:10 1020 30.12 849 25.07 -14.7 5.6 71 -18.9 -2
01:15 1020 30.12 849 25.07 -14.7 5.5 71 -18.9 -2
01:20 1020 30.12 849 25.07 -14.8 5.3 71 -19 -2.2
01:25 1020 30.12 849 25.07 -14.9 5.2 72 -19 -2.1
01:30 1020 30.12 849 25.07 -15 4.9 71 -19.2 -2.6
01:35 1020 30.12 849 25.07 -15.2 4.7 72 -19.2 -2.6
01:40 1020 30.12 849 25.07 -15.2 4.6 71 -19.3 -2.7
01:45 1020 30.12 850 25.1 -15.3 4.5 73 -19.1 -2.4
01:50 1021 30.15 850 25.1 -15.1 4.8 72 -19.1 -2.4
01:55 1021 30.15 850 25.1 -15.2 4.7 72 -19.1 -2.4
02:00 1021 30.15 850 25.1 -15.4 4.3 74 -19.1 -2.4
02:05 1021 30.15 850 25.1 -15.5 4.1 73 -19.3 -2.7
02:10 1021 30.15 850 25.1 -15.5 4.1 73 -19.4 -2.9
02:15 1021 30.15 850 25.1 -15.4 4.2 72 -19.4 -2.9
02:20 1021 30.15 850 25.1 -15.3 4.4 73 -19.1 -2.5
02:25 1021 30.15 850 25.1 -15.4 4.4 73 -19.1 -2.4
02:30 1021 30.15 850 25.1 -15.3 4.5 73 -19.1 -2.3
02:35 1021 30.15 850 25.1 -15.2 4.7 72 -19.2 -2.5
02:40 1021 30.15 850 25.1 -15.2 4.6 73 -19.1 -2.4
02:45 1021 30.15 850 25.1 -15.1 4.9 72 -19.1 -2.4
02:50 1021 30.15 850 25.1 -14.9 5.2 72 -18.8 -1.9
02:55 1021 30.15 850 25.1 -14.7 5.5 70 -19 -2.2
03:00 1021 30.15 850 25.1 -14.8 5.4 71 -18.9 -2
03:05 1021 30.15 850 25.1 -14.8 5.3 72 -18.8 -1.9
03:10 1021 30.15 850 25.1 -14.7 5.5 71 -18.8 -1.9
03:15 1021 30.15 850 25.1 -14.5 5.9 72 -18.5 -1.4
03:20 1020 30.12 850 25.1 -14.5 5.9 73 -18.3 -1
03:25 1020 30.12 850 25.1 -14.5 6 73 -18.3 -0.9
03:30 1020 30.12 849 25.07 -14.4 6.1 74 -18.1 -0.6
03:35 1020 30.12 849 25.07 -14.3 6.3 72 -18.3 -0.9
03:40 1020 30.12 849 25.07 -14.2 6.4 72 -18.2 -0.7
03:45 1020 30.12 849 25.07 -14.1 6.7 70 -18.4 -1.1
03:50 1020 30.12 849 25.07 -14.2 6.4 72 -18.3 -1
03:55 1020 30.12 849 25.07 -13.9 7 69 -18.4 -1.2
04:00 1020 30.12 849 25.07 -13.9 6.9 70 -18.3 -0.9
04:05 1020 30.12 849 25.07 -13.9 6.9 70 -18.3 -0.9
04:10 1020 30.12 849 25.07 -13.9 6.9 72 -18 -0.4
04:15 1020 30.12 849 25.07 -13.7 7.4 72 -17.7 0.2
04:20 1020 30.12 849 25.07 -13.5 7.7 73 -17.4 0.7
04:25 1020 30.12 849 25.07 -13.4 7.9 75 -16.9 1.6
04:30 1020 30.12 849 25.07 -13.3 8.1 77 -16.4 2.4
04:35 1020 30.12 849 25.07 -13.2 8.3 79 -16 3.1
04:40 1020 30.12 849 25.07 -13.6 7.6 80 -16.3 2.7
04:45 1020 30.12 849 25.07 -13.6 7.5 81 -16.2 2.9
04:50 1020 30.12 849 25.07 -13.6 7.5 81 -16.2 2.9
04:55 1020 30.12 849 25.07 -13.7 7.4 80 -16.5 2.3
05:00 1019 30.09 849 25.07 -13.8 7.2 81 -16.3 2.6
05:05 1019 30.09 849 25.07 -13.7 7.3 81 -16.4 2.5
05:10 1019 30.09 849 25.07 -13.8 7.2 81 -16.4 2.4
05:15 1019 30.09 848 25.04 -13.5 7.6 78 -16.7 2
05:20 1019 30.09 848 25.04 -13.8 7.3 79 -16.6 2.1
05:25 1019 30.09 848 25.04 -13.9 6.9 81 -16.5 2.4
05:30 1019 30.09 848 25.04 -13.6 7.5 81 -16.3 2.7
05:35 1019 30.09 848 25.04 -13.2 8.2 78 -16.2 2.8
05:40 1019 30.09 848 25.04 -13.3 8.1 80 -16.1 3.1
05:45 1019 30.09 848 25.04 -13.4 7.8 81 -16 3.2
05:50 1019 30.09 848 25.04 -13.4 8 81 -16 3.3
05:55 1019 30.09 848 25.04 -13.1 8.4 81 -15.8 3.6
06:00 1019 30.09 848 25.04 -13.2 8.3 80 -16 3.3
06:05 1019 30.09 848 25.04 -13.2 8.2 80 -16 3.2
06:10 1019 30.09 848 25.04 -13.4 8 80 -16.1 3.1
06:15 1019 30.09 848 25.04 -13.6 7.4 81 -16.2 2.8
06:20 1019 30.09 848 25.04 -13.4 7.8 80 -16.2 2.9
06:25 1019 30.09 848 25.04 -13.4 7.8 81 -16.1 3.1
06:30 1019 30.09 848 25.04 -13.4 7.8 80 -16.1 2.9
06:35 1018 30.06 848 25.04 -13.6 7.6 81 -16.2 2.9
06:40 1018 30.06 848 25.04 -13.5 7.7 81 -16.1 3
06:45 1018 30.06 848 25.04 -13.4 8 80 -16.1 3
06:50 1018 30.06 848 25.04 -13.3 8.1 80 -16.1 3
06:55 1018 30.06 847 25.01 -13.3 8.1 79 -16.2 2.9
07:00 1018 30.06 847 25.01 -13.4 8 79 -16.3 2.7
07:05 1018 30.06 847 25.01 -13.4 7.9 79 -16.2 2.8
07:10 1018 30.06 847 25.01 -13.4 7.9 79 -16.3 2.7
07:15 1018 30.06 847 25.01 -13.5 7.6 80 -16.3 2.7
07:20 1018 30.06 847 25.01 -13.3 8 79 -16.3 2.7
07:25 1018 30.06 847 25.01 -13.5 7.7 80 -16.3 2.6
07:30 1018 30.06 847 25.01 -13.8 7.2 81 -16.4 2.5
07:35 1018 30.06 847 25.01 -13.9 7 82 -16.3 2.6
07:40 1018 30.06 847 25.01 -13.6 7.4 79 -16.5 2.3
07:45 1018 30.06 847 25.01 -13.8 7.1 82 -16.3 2.7
07:50 1018 30.06 847 25.01 -13.9 7.1 82 -16.4 2.5
07:55 1018 30.06 847 25.01 -13.9 7 82 -16.4 2.5
08:00 1018 30.06 847 25.01 -13.9 6.9 83 -16.3 2.7
08:05 1018 30.06 847 25.01 -14 6.9 83 -16.3 2.7
08:10 1018 30.06 847 25.01 -14 6.8 82 -16.4 2.5
08:15 1018 30.06 847 25.01 -14 6.9 83 -16.3 2.6
08:20 1018 30.06 847 25.01 -13.6 7.5 82 -16 3.2
08:25 1018 30.06 847 25.01 -13.3 8.2 82 -15.7 3.7
08:30 1018 30.06 847 25.01 -13.2 8.3 80 -15.9 3.3
08:35 1018 30.06 847 25.01 -13.5 7.6 81 -16.1 3.1
08:40 1018 30.06 847 25.01 -13.4 7.9 81 -16 3.1
08:45 1018 30.06 847 25.01 -13.2 8.3 81 -15.7 3.7
08:50 1018 30.06 847 25.01 -13.1 8.5 81 -15.7 3.8
08:55 1018 30.06 847 25.01 -12.9 8.7 79 -15.9 3.4
09:00 1018 30.06 847 25.01 -12.9 8.8 81 -15.6 4
09:05 1018 30.06 847 25.01 -12.7 9.2 79 -15.6 3.9
09:10 1018 30.06 847 25.01 -12.6 9.3 79 -15.6 4
09:15 1018 30.06 847 25.01 -12.5 9.5 79 -15.5 4.1
09:20 1018 30.06 847 25.01 -12.4 9.6 79 -15.3 4.4
09:25 1018 30.06 847 25.01 -12.1 10.3 78 -15.2 4.6
09:30 1018 30.06 847 25.01 -11.8 10.7 76 -15.2 4.6
09:35 1018 30.06 847 25.01 -11.7 10.9 76 -15.2 4.7
09:40 1018 30.06 847 25.01 -11.6 11.1 75 -15.2 4.7
09:45 1018 30.06 847 25.01 -11.4 11.4 74 -15.3 4.5
09:50 1018 30.06 847 25.01 -11.3 11.6 75 -15 5
09:55 1018 30.06 847 25.01 -11.2 11.9 74 -14.9 5.2
10:00 1018 30.06 847 25.01 -11.3 11.7 75 -14.9 5.1
10:05 1018 30.06 847 25.01 -11.3 11.8 76 -14.7 5.5
10:10 1018 30.06 847 25.01 -10.8 12.6 74 -14.6 5.7
10:15 1018 30.06 847 25.01 -10.4 13.2 71 -14.7 5.6
10:20 1018 30.06 847 25.01 -10.6 12.8 73 -14.7 5.6
10:25 1018 30.06 847 25.01 -10.5 13.1 72 -14.6 5.8
10:30 1018 30.06 847 25.01 -10.6 13 72 -14.7 5.6
10:35 1018 30.06 847 25.01 -10.7 12.8 72 -14.8 5.4
10:40 1018 30.06 847 25.01 -10.2 13.6 70 -14.7 5.5
10:45 1018 30.06 847 25.01 -10.1 13.8 71 -14.4 6.1
10:50 1018 30.06 847 25.01 -9.9 14.2 70 -14.3 6.2
10:55 1018 30.06 847 25.01 -10 14.1 71 -14.4 6.2
11:00 1017 30.03 847 25.01 -10.1 13.8 71 -14.5 6
11:05 1017 30.03 847 25.01 -10.2 13.6 72 -14.4 6.1
11:10 1017 30.03 847 25.01 -9.9 14.3 71 -14.2 6.5
11:15 1017 30.03 847 25.01 -9.7 14.6 71 -14 6.8
11:20 1017 30.03 847 25.01 -9.5 15 69 -14.1 6.6
11:25 1017 30.03 846 24.98 -9.5 14.9 70 -14.1 6.7
11:30 1017 30.03 846 24.98 -9.3 15.3 70 -13.9 7.1
11:35 1017 30.03 846 24.98 -8.8 16.1 68 -13.7 7.3
11:40 1017 30.03 846 24.98 -8.7 16.3 68 -13.7 7.3
11:45 1017 30.03 846 24.98 -8.7 16.4 69 -13.3 8
11:50 1017 30.03 846 24.98 -8.5 16.7 68 -13.4 7.8
11:55 1017 30.03 846 24.98 -8 17.6 66 -13.2 8.2
12:00 1017 30.03 846 24.98 -7.8 17.9 65 -13.3 8
12:05 1016 30 846 24.98 -7.8 17.9 65 -13.2 8.2
12:10 1016 30 846 24.98 -7.8 18 65 -13.2 8.2
12:15 1016 30 845 24.95 -7.7 18.2 66 -12.9 8.8
12:20 1016 30 845 24.95 -7.4 18.7 64 -13.1 8.5
12:25 1016 30 845 24.95 -7.3 18.9 64 -13 8.6
12:30 1016 30 845 24.95 -7.1 19.2 64 -12.8 8.9
12:35 1016 30 845 24.95 -7.1 19.2 65 -12.6 9.3
12:40 1016 30 845 24.95 -7 19.4 64 -12.7 9.2
12:45 1016 30 845 24.95 -7.2 19.1 65 -12.6 9.3
12:50 1015 29.97 845 24.95 -6.8 19.8 65 -12.3 9.9
12:55 1015 29.97 845 24.95 -6.4 20.4 65 -12.1 10.2
13:00 1015 29.97 844 24.92 -6.2 20.9 65 -11.8 10.8
13:05 1015 29.97 844 24.92 -6.3 20.7 63 -12.2 10
13:10 1015 29.97 844 24.92 -6.6 20.2 64 -12.2 10
13:15 1015 29.97 844 24.92 -6.9 19.6 66 -12.1 10.2
13:20 1015 29.97 844 24.92 -6.5 20.3 65 -12.1 10.2
13:25 1015 29.97 844 24.92 -6.3 20.7 64 -11.9 10.5
13:30 1015 29.97 844 24.92 -6.3 20.8 63 -12.2 10
13:35 1015 29.97 844 24.92 -6.7 19.9 65 -12.2 10.1
13:40 1014 29.94 844 24.92 -6.9 19.5 68 -11.9 10.7
13:45 1014 29.94 844 24.92 -6.8 19.8 67 -12 10.4
13:50 1014 29.94 843 24.89 -6.8 19.7 67 -12 10.5
13:55 1014 29.94 843 24.89 -6.9 19.6 68 -11.8 10.7
14:00 1014 29.94 843 24.89 -6.6 20.1 67 -11.7 10.9
14:05 1014 29.94 843 24.89 -6.4 20.4 65 -11.9 10.6
14:10 1014 29.94 843 24.89 -6.6 20.1 67 -11.8 10.7
14:15 1014 29.94 843 24.89 -6.5 20.3 66 -11.8 10.8
14:20 1014 29.94 843 24.89 -6.2 20.9 66 -11.6 11.1
14:25 1013 29.91 843 24.89 -5.7 21.8 65 -11.3 11.6
14:30 1013 29.91 842 24.86 -5.4 22.3 64 -11.1 12
14:35 1013 29.91 842 24.86 -5.2 22.7 64 -10.9 12.4
14:40 1013 29.91 842 24.86 -5.2 22.6 64 -10.9 12.3
14:45 1013 29.91 842 24.86 -5.1 22.8 62 -11.2 11.9
14:50 1013 29.91 842 24.86 -5.1 22.8 64 -11 12.3
14:55 1013 29.91 842 24.86 -5.1 22.8 64 -11 12.2
15:00 1013 29.91 842 24.86 -5.2 22.7 64 -11 12.3
15:05 1013 29.91 842 24.86 -5.2 22.7 64 -11 12.2
15:10 1012 29.88 842 24.86 -5 22.9 64 -10.9 12.4
15:15 1012 29.88 842 24.86 -4.9 23.2 64 -10.7 12.7
15:20 1012 29.88 841 24.83 -4.9 23.1 65 -10.6 13
15:25 1012 29.88 841 24.83 -5 22.9 66 -10.5 13.1
15:30 1012 29.88 841 24.83 -5 23 64 -10.8 12.6
15:35 1012 29.88 841 24.83 -5.1 22.8 66 -10.5 13
15:40 1012 29.88 841 24.83 -5.1 22.8 66 -10.6 13
15:45 1012 29.88 841 24.83 -4.9 23.2 65 -10.4 13.2
15:50 1012 29.88 841 24.83 -4.7 23.6 66 -10.2 13.7
15:55 1012 29.88 841 24.83 -4.4 24.1 65 -10.1 13.9
16:00 1012 29.88 841 24.83 -4.3 24.3 65 -10 14
16:05 1012 29.88 841 24.83 -4.2 24.4 66 -9.8 14.4
16:10 1012 29.88 841 24.83 -4.2 24.5 66 -9.6 14.6
16:15 1011 29.85 841 24.83 -4.1 24.6 65 -9.7 14.6
16:20 1011 29.85 840 24.81 -4.3 24.3 67 -9.5 15
16:25 1011 29.85 840 24.81 -4.4 24.1 69 -9.3 15.3
16:30 1011 29.85 840 24.81 -4.4 24 70 -9.1 15.7
16:35 1011 29.85 840 24.81 -4.4 24 70 -9.1 15.6
16:40 1011 29.85 840 24.81 -4.2 24.4 70 -8.9 15.9
16:45 1011 29.85 840 24.81 -4.2 24.5 71 -8.7 16.4
16:50 1011 29.85 840 24.81 -4.1 24.7 72 -8.5 16.8
16:55 1011 29.85 840 24.81 -3.9 25 72 -8.3 17.1
17:00 1011 29.85 840 24.81 -3.7 25.3 71 -8.2 17.2
17:05 1010 29.83 840 24.81 -3.5 25.8 71 -8 17.5
17:10 1010 29.83 840 24.81 -3.4 25.9 70 -8.1 17.5
17:15 1010 29.83 839 24.78 -3.3 26.1 70 -8 17.5
17:20 1010 29.83 839 24.78 -3.5 25.7 71 -8.1 17.5
17:25 1010 29.83 839 24.78 -3.5 25.7 71 -8 17.6
17:30 1010 29.83 839 24.78 -3.3 26 71 -7.8 17.9
17:35 1010 29.83 839 24.78 -3.1 26.4 71 -7.6 18.3
17:40 1010 29.83 839 24.78 -3 26.7 72 -7.4 18.7
17:45 1010 29.83 839 24.78 -3 26.6 72 -7.4 18.7
17:50 1010 29.83 839 24.78 -3.2 26.3 73 -7.3 18.9
17:55 1010 29.83 839 24.78 -3.3 26 75 -7.2 19.1
18:00 1010 29.83 839 24.78 -3.5 25.7 74 -7.5 18.5
18:05 1010 29.83 839 24.78 -3.9 25 76 -7.6 18.3
18:10 1010 29.83 839 24.78 -3.9 24.9 74 -8 17.7
18:15 1010 29.83 839 24.78 -3.9 24.9 72 -8.2 17.2
18:20 1010 29.83 839 24.78 -4.3 24.3 73 -8.4 16.9
18:25 1010 29.83 839 24.78 -4.7 23.5 73 -8.8 16.1
18:30 1010 29.83 839 24.78 -5.1 22.8 73 -9.2 15.4
18:35 1010 29.83 839 24.78 -5.5 22 74 -9.5 14.9
18:40 1009 29.8 839 24.78 -6 21.3 75 -9.6 14.7
18:45 1009 29.8 838 24.75 -6.2 20.9 77 -9.5 14.9
18:50 1009 29.8 838 24.75 -5.9 21.3 77 -9.3 15.3
18:55 1009 29.8 838 24.75 -5.8 21.5 77 -9.2 15.5
19:00 1009 29.8 838 24.75 -5.7 21.8 78 -8.9 15.9
19:05 1009 29.8 838 24.75 -5.5 22.1 78 -8.8 16.2
19:10 1009 29.8 838 24.75 -5.2 22.6 78 -8.4 16.9
19:15 1009 29.8 838 24.75 -4.9 23.2 78 -8.1 17.4
19:20 1009 29.8 838 24.75 -4.7 23.6 79 -7.9 17.9
19:25 1009 29.8 838 24.75 -4.4 24 78 -7.7 18.1
19:30 1009 29.8 838 24.75 -3.5 25.6 77 -7.1 19.2
19:35 1009 29.8 838 24.75 -3 26.6 76 -6.6 20
19:40 1009 29.8 838 24.75 -2.5 27.5 77 -6 21.1
19:45 1009 29.8 838 24.75 -1.8 28.7 74 -6 21.3
19:50 1009 29.8 838 24.75 -1.5 29.4 75 -5.3 22.4
19:55 1009 29.8 838 24.75 -0.4 31.4 68 -5.6 22
20:00 1009 29.8 838 24.75 -0.2 31.7 70 -5 22.9
20:05 1009 29.8 838 24.75 -0.4 31.4 73 -4.6 23.7
20:10 1009 29.8 838 24.75 -0.2 31.7 73 -4.5 23.9
20:15 1009 29.8 838 24.75 0.1 32.2 69 -4.9 23.3
20:20 1009 29.8 838 24.75 0.4 32.7 69 -4.7 23.6
20:25 1009 29.8 838 24.75 0.6 33.1 68 -4.6 23.6
20:30 1009 29.8 838 24.75 0.7 33.2 69 -4.4 24.2
20:35 1009 29.8 838 24.75 0.7 33.3 69 -4.4 24.1
20:40 1009 29.8 838 24.75 0.8 33.4 70 -4.1 24.6
20:45 1009 29.8 838 24.75 1 33.8 69 -4 24.9
20:50 1009 29.8 838 24.75 1.3 34.4 68 -4 24.9
20:55 1009 29.8 838 24.75 1.4 34.6 69 -3.7 25.3
21:00 1009 29.8 838 24.75 1.2 34.2 69 -3.9 25
21:05 1009 29.8 838 24.75 1 33.8 69 -4 24.8
21:10 1009 29.8 839 24.78 0.5 32.9 72 -4 24.7
21:15 1010 29.83 839 24.78 -0.1 31.8 73 -4.3 24.2
21:20 1009 29.8 839 24.78 -0.6 30.9 77 -4.1 24.6
21:25 1009 29.8 838 24.75 -0.7 30.8 77 -4.2 24.5
21:30 1009 29.8 839 24.78 -0.7 30.7 76 -4.3 24.2
21:35 1010 29.83 839 24.78 -0.8 30.6 77 -4.3 24.3
21:40 1010 29.83 839 24.78 -1.1 30.1 80 -4.1 24.6
21:45 1010 29.83 839 24.78 -1.1 30.1 81 -4 24.8
21:50 1010 29.83 839 24.78 -0.6 30.8 78 -3.9 24.9
21:55 1010 29.83 839 24.78 -0.4 31.2 80 -3.5 25.7
22:00 1010 29.83 839 24.78 -0.1 31.8 79 -3.4 25.9
22:05 1010 29.83 839 24.78 -0.1 31.8 79 -3.4 25.9
22:10 1010 29.83 839 24.78 0.1 32.1 77 -3.4 25.8
22:15 1010 29.83 839 24.78 0.5 32.9 78 -2.8 26.9
22:20 1010 29.83 839 24.78 1 33.7 77 -2.6 27.3
22:25 1010 29.83 839 24.78 1.1 34 77 -2.6 27.4
22:30 1010 29.83 839 24.78 1.7 35 74 -2.5 27.4
22:35 1010 29.83 839 24.78 1.9 35.5 74 -2.3 27.9
22:40 1010 29.83 839 24.78 2 35.5 73 -2.3 27.8
22:45 1010 29.83 839 24.78 2.1 35.7 73 -2.3 27.9
22:50 1010 29.83 839 24.78 2.3 36.1 71 -2.4 27.7
22:55 1010 29.83 839 24.78 2 35.6 74 -2.2 28.1
23:00 1010 29.83 839 24.78 1.6 34.8 74 -2.6 27.4
23:05 1010 29.83 839 24.78 1.6 34.9 73 -2.7 27.2
23:10 1010 29.83 839 24.78 1.8 35.3 72 -2.6 27.3
23:15 1010 29.83 839 24.78 2 35.7 73 -2.4 27.7
23:20 1010 29.83 839 24.78 1.1 34 78 -2.3 27.8
23:25 1010 29.83 839 24.78 1.2 34.2 77 -2.3 27.8
23:30 1010 29.83 839 24.78 1.6 34.8 76 -2.3 27.9
23:35 1010 29.83 839 24.78 1.8 35.2 74 -2.3 27.9
23:40 1010 29.83 839 24.78 2 35.6 74 -2.2 28
23:45 1010 29.83 839 24.78 2.1 35.7 73 -2.2 28
23:50 1010 29.83 839 24.78 2.2 35.9 72 -2.3 27.8
23:55 1010 29.83 839 24.78 2.3 36.1 70 -2.6 27.4
24:00 1010 29.83 839 24.78 2.8 37.1 67 -2.7 27.2